Time;durP1;ratioP1;P1;durP2;ratioP2;P2;SDS_P1;SDS_P2;PMS_P1;PMS_P2;Temp;Humidity;BMP_temperature;BMP_pressure;BME280_temperature;BME280_humidity;BME280_pressure;Samples;Min_cycle;Max_cycle;Signal;HPM_P1;HPM_P2
2023/04/04 00:02:09;;;;;;;2.10;1.15;;;3.90;99.90;;;;;;5006189;28;20117;-89
2023/04/04 00:04:36;;;;;;;1.92;1.00;;;3.80;99.90;;;;;;4988577;28;20084;-87
2023/04/04 00:07:03;;;;;;;2.72;1.10;;;3.80;99.90;;;;;;4983871;28;20109;-88
2023/04/04 00:09:29;;;;;;;3.20;1.00;;;3.80;99.90;;;;;;4989612;28;20034;-87
2023/04/04 00:11:55;;;;;;;2.15;1.00;;;3.80;99.90;;;;;;4988511;28;20030;-87
2023/04/04 00:14:22;;;;;;;3.42;1.25;;;3.70;99.90;;;;;;5003314;28;20040;-88
2023/04/04 00:16:49;;;;;;;2.60;1.00;;;3.70;99.90;;;;;;5005958;28;20026;-88
2023/04/04 00:19:17;;;;;;;4.50;1.30;;;3.70;99.90;;;;;;4990209;28;20033;-86
2023/04/04 00:21:46;;;;;;;3.72;1.30;;;3.70;99.90;;;;;;4993021;28;20029;-89
2023/04/04 00:24:12;;;;;;;3.15;1.10;;;3.70;99.90;;;;;;4990752;28;20021;-88
2023/04/04 00:26:45;;;;;;;4.18;1.10;;;3.70;99.90;;;;;;5009769;28;20060;-90
2023/04/04 00:29:11;;;;;;;2.55;1.15;;;3.60;99.90;;;;;;4995300;28;20041;-89
2023/04/04 00:31:37;;;;;;;2.85;1.10;;;3.60;99.90;;;;;;5009207;28;20164;-89
2023/04/04 00:34:10;;;;;;;2.50;0.80;;;3.60;99.90;;;;;;4993034;28;20022;-90
2023/04/04 00:36:38;;;;;;;4.53;1.40;;;3.60;99.90;;;;;;4989928;28;20034;-88
2023/04/04 00:39:03;;;;;;;1.65;0.88;;;3.60;99.90;;;;;;4989700;28;20060;-87
2023/04/04 00:41:30;;;;;;;2.58;1.00;;;3.60;99.90;;;;;;4993459;28;20033;-88
2023/04/04 00:43:57;;;;;;;3.15;1.20;;;3.50;99.90;;;;;;4973341;28;20045;-87
2023/04/04 00:46:29;;;;;;;2.03;1.00;;;3.50;99.90;;;;;;4988263;28;20041;-87
2023/04/04 00:48:55;;;;;;;2.42;1.13;;;3.40;99.90;;;;;;4988966;28;20064;-85
2023/04/04 00:51:24;;;;;;;1.90;1.00;;;3.40;99.90;;;;;;4987246;28;20029;-87
2023/04/04 00:53:58;;;;;;;2.40;1.27;;;3.40;99.90;;;;;;4993351;28;20440;-87
2023/04/04 00:56:27;;;;;;;2.60;0.88;;;3.40;99.90;;;;;;5008159;28;20031;-89
2023/04/04 00:58:54;;;;;;;3.10;1.00;;;3.30;99.90;;;;;;4991106;28;20038;-87
2023/04/04 01:01:20;;;;;;;3.80;1.20;;;3.30;99.90;;;;;;5007502;28;20096;-87
2023/04/04 01:03:47;;;;;;;2.75;1.33;;;3.30;99.90;;;;;;5009933;28;20075;-87
2023/04/04 01:06:14;;;;;;;2.30;1.10;;;3.20;99.90;;;;;;5006462;28;20172;-86
2023/04/04 01:08:41;;;;;;;4.75;1.30;;;3.20;99.90;;;;;;4989904;28;20038;-86
2023/04/04 01:11:08;;;;;;;3.00;1.13;;;3.20;99.90;;;;;;4990089;28;20038;-85
2023/04/04 01:13:36;;;;;;;2.88;1.05;;;3.20;99.90;;;;;;4989678;28;20033;-88
2023/04/04 01:16:01;;;;;;;4.32;1.88;;;3.10;99.90;;;;;;4968130;28;20052;-89
2023/04/04 01:18:28;;;;;;;2.42;1.05;;;3.10;99.90;;;;;;5007183;28;20494;-88
2023/04/04 01:21:15;;;;;;;2.50;1.17;;;3.10;99.90;;;;;;4983139;28;20358;-89
2023/04/04 01:23:51;;;;;;;2.15;1.30;;;3.10;99.90;;;;;;4994147;28;20040;-89
2023/04/04 01:26:22;;;;;;;3.95;1.67;;;3.00;99.90;;;;;;5011361;28;20034;-88
2023/04/04 01:28:49;;;;;;;2.67;1.23;;;3.00;99.90;;;;;;5009099;28;20022;-88
2023/04/04 01:31:22;;;;;;;4.65;1.55;;;3.00;99.90;;;;;;4991948;28;20127;-88
2023/04/04 01:33:57;;;;;;;3.33;1.50;;;2.90;99.90;;;;;;4977593;28;20026;-88
2023/04/04 01:36:39;;;;;;;3.97;1.40;;;2.90;99.90;;;;;;4991601;28;20417;-88
2023/04/04 01:39:14;;;;;;;2.65;1.30;;;2.80;99.90;;;;;;4991552;28;20029;-88
2023/04/04 01:41:42;;;;;;;2.92;1.30;;;2.70;99.90;;;;;;4986725;28;20120;-89
2023/04/04 01:44:08;;;;;;;2.45;1.23;;;2.70;99.90;;;;;;4992315;28;20038;-89
2023/04/04 01:46:36;;;;;;;2.78;1.65;;;2.70;99.90;;;;;;4990488;28;20486;-88
2023/04/04 01:49:01;;;;;;;2.05;1.17;;;2.70;99.90;;;;;;4989652;28;20121;-88
2023/04/04 01:51:37;;;;;;;3.55;1.38;;;2.60;99.90;;;;;;4992698;28;20169;-88
2023/04/04 01:54:04;;;;;;;2.72;1.20;;;2.60;99.90;;;;;;4988282;28;20065;-88
2023/04/04 01:56:31;;;;;;;3.67;1.50;;;2.60;99.90;;;;;;4990303;28;20389;-88
2023/04/04 01:58:57;;;;;;;3.30;1.48;;;2.60;99.90;;;;;;4991540;28;20466;-88
2023/04/04 02:01:24;;;;;;;3.13;1.20;;;2.60;99.90;;;;;;4987273;28;20030;-88
2023/04/04 02:03:51;;;;;;;2.25;1.20;;;2.50;99.90;;;;;;4987978;28;20123;-88
2023/04/04 02:06:17;;;;;;;2.53;1.40;;;2.50;99.90;;;;;;4995324;28;20180;-88
2023/04/04 02:08:43;;;;;;;5.57;1.55;;;2.50;99.90;;;;;;5009711;28;20557;-88
2023/04/04 02:11:09;;;;;;;2.78;1.20;;;2.50;99.90;;;;;;5005464;28;20034;-89
2023/04/04 02:13:40;;;;;;;3.53;1.40;;;2.40;99.90;;;;;;5008389;28;20033;-88
2023/04/04 02:16:07;;;;;;;2.47;1.20;;;2.40;99.90;;;;;;5006200;28;20117;-88
2023/04/04 02:18:33;;;;;;;3.75;1.33;;;2.40;99.90;;;;;;4985889;28;20034;-87
2023/04/04 02:20:59;;;;;;;2.42;1.35;;;2.30;99.90;;;;;;4989267;28;20087;-90
2023/04/04 02:23:25;;;;;;;3.85;1.60;;;2.30;99.90;;;;;;4986573;28;20037;-90
2023/04/04 02:25:51;;;;;;;3.03;1.23;;;2.30;99.90;;;;;;5009418;28;20014;-89
2023/04/04 02:28:19;;;;;;;3.42;1.50;;;2.30;99.90;;;;;;5008670;28;20091;-89
2023/04/04 02:30:45;;;;;;;3.50;1.48;;;2.20;99.90;;;;;;4991510;28;20077;-87
2023/04/04 02:33:10;;;;;;;2.03;1.30;;;2.20;99.90;;;;;;4986007;28;20071;-90
2023/04/04 02:35:37;;;;;;;2.90;1.17;;;2.20;99.90;;;;;;5005132;28;20068;-89
2023/04/04 02:38:03;;;;;;;4.07;1.52;;;2.20;99.90;;;;;;5006475;28;20069;-88
2023/04/04 02:40:29;;;;;;;3.63;1.60;;;2.20;99.90;;;;;;5006211;28;20080;-89
2023/04/04 02:42:55;;;;;;;2.65;1.30;;;2.10;99.90;;;;;;4984832;28;20921;-88
2023/04/04 02:45:21;;;;;;;3.22;1.50;;;2.10;99.90;;;;;;4972984;28;20116;-87
2023/04/04 02:47:50;;;;;;;2.88;1.38;;;2.10;99.90;;;;;;4970553;28;20121;-88
2023/04/04 02:50:16;;;;;;;3.72;1.15;;;2.10;99.90;;;;;;4990604;28;20030;-86
2023/04/04 02:52:43;;;;;;;2.15;1.25;;;2.10;99.90;;;;;;5006023;28;20742;-87
2023/04/04 02:55:11;;;;;;;2.55;1.35;;;2.10;99.90;;;;;;5008546;28;20037;-88
2023/04/04 02:57:37;;;;;;;2.42;1.30;;;2.10;99.90;;;;;;4984351;28;20071;-88
2023/04/04 03:00:03;;;;;;;3.10;1.30;;;2.10;99.90;;;;;;4956906;28;20125;-88
2023/04/04 03:02:30;;;;;;;3.25;1.05;;;2.10;99.90;;;;;;4989179;28;20026;-87
2023/04/04 03:04:57;;;;;;;2.88;1.13;;;2.00;99.90;;;;;;5005336;28;20034;-89
2023/04/04 03:07:25;;;;;;;2.33;1.20;;;2.00;99.90;;;;;;5007083;28;20080;-87
2023/04/04 03:09:51;;;;;;;2.03;1.08;;;2.00;99.90;;;;;;4985019;28;20077;-89
2023/04/04 03:12:20;;;;;;;3.00;1.45;;;1.90;99.90;;;;;;4985725;28;20037;-88
2023/04/04 03:14:47;;;;;;;3.08;1.40;;;1.90;99.90;;;;;;4993135;28;20029;-88
2023/04/04 03:17:14;;;;;;;1.90;0.98;;;1.90;99.90;;;;;;4987644;28;20061;-88
2023/04/04 03:19:40;;;;;;;2.33;1.02;;;1.90;99.90;;;;;;4986634;28;20050;-89
2023/04/04 03:22:07;;;;;;;2.50;1.17;;;1.90;99.90;;;;;;4989704;28;20040;-90
2023/04/04 03:24:33;;;;;;;3.67;1.77;;;1.90;99.90;;;;;;4974584;28;20034;-88
2023/04/04 03:27:00;;;;;;;2.25;1.20;;;1.80;99.90;;;;;;5005698;28;20037;-88
2023/04/04 03:29:28;;;;;;;2.85;1.17;;;1.80;99.90;;;;;;4986821;28;20089;-89
2023/04/04 03:32:03;;;;;;;2.70;1.23;;;1.70;99.90;;;;;;4992066;28;20021;-88
2023/04/04 03:34:32;;;;;;;3.08;1.10;;;1.70;99.90;;;;;;4990007;28;20040;-89
2023/04/04 03:36:58;;;;;;;2.65;1.08;;;1.70;99.90;;;;;;4987287;28;20133;-89
2023/04/04 03:39:29;;;;;;;3.22;1.20;;;1.60;99.90;;;;;;4987305;28;20113;-88
2023/04/04 03:41:56;;;;;;;2.85;1.00;;;1.70;99.90;;;;;;4983000;28;20069;-88
2023/04/04 03:44:22;;;;;;;2.80;1.02;;;1.60;99.90;;;;;;4984042;28;20034;-89
2023/04/04 03:46:47;;;;;;;3.15;1.10;;;1.60;99.90;;;;;;4991016;28;20049;-88
2023/04/04 03:49:13;;;;;;;2.70;1.20;;;1.60;99.90;;;;;;4986831;28;22416;-87
2023/04/04 03:51:39;;;;;;;2.50;1.00;;;1.60;99.90;;;;;;4982729;28;20393;-86
2023/04/04 03:54:05;;;;;;;2.22;1.10;;;1.60;99.90;;;;;;4992246;28;20022;-87
2023/04/04 03:56:31;;;;;;;1.77;1.10;;;1.50;99.90;;;;;;4987605;28;20025;-85
2023/04/04 03:58:57;;;;;;;1.73;1.10;;;1.50;99.90;;;;;;4987939;28;20493;-89
2023/04/04 04:01:23;;;;;;;3.00;1.10;;;1.50;99.90;;;;;;4988951;28;20030;-88
2023/04/04 04:03:50;;;;;;;2.90;1.10;;;1.50;99.90;;;;;;5006892;28;20014;-88
2023/04/04 04:06:16;;;;;;;4.60;1.13;;;1.40;99.90;;;;;;5005429;28;20068;-86
2023/04/04 04:08:42;;;;;;;3.22;1.27;;;1.40;99.90;;;;;;4989486;28;20070;-87
2023/04/04 04:11:08;;;;;;;2.45;1.13;;;1.40;99.90;;;;;;4988465;28;20022;-88
2023/04/04 04:13:37;;;;;;;4.15;1.48;;;1.30;99.90;;;;;;4987309;28;20026;-88
2023/04/04 04:16:04;;;;;;;2.33;1.13;;;1.30;99.90;;;;;;5005496;28;20022;-87
2023/04/04 04:18:29;;;;;;;2.80;1.17;;;1.30;99.90;;;;;;4984747;28;20045;-87
2023/04/04 04:21:01;;;;;;;2.50;1.33;;;1.30;99.90;;;;;;4982000;28;20026;-87
2023/04/04 04:23:28;;;;;;;3.05;1.20;;;1.20;99.90;;;;;;4992852;28;20034;-87
2023/04/04 04:25:54;;;;;;;3.40;1.45;;;1.20;99.90;;;;;;4987445;28;20026;-86
2023/04/04 04:28:19;;;;;;;2.38;1.25;;;1.20;99.90;;;;;;4970057;28;20052;-87
2023/04/04 04:30:46;;;;;;;3.05;1.17;;;1.10;99.90;;;;;;4990302;28;20022;-87
2023/04/04 04:33:11;;;;;;;2.63;1.30;;;1.10;99.90;;;;;;4988623;28;20088;-89
2023/04/04 04:35:40;;;;;;;3.00;1.65;;;1.10;99.90;;;;;;4989887;28;20445;-86
2023/04/04 04:38:07;;;;;;;2.08;1.10;;;1.00;99.90;;;;;;4985107;28;20382;-87
2023/04/04 04:40:33;;;;;;;2.15;1.20;;;1.10;99.90;;;;;;4989253;28;20462;-88
2023/04/04 04:42:59;;;;;;;2.67;1.30;;;1.00;99.90;;;;;;4988728;28;20096;-86
2023/04/04 04:45:26;;;;;;;3.05;1.15;;;0.90;99.90;;;;;;4970631;28;20435;-88
2023/04/04 04:47:54;;;;;;;2.95;1.08;;;0.90;99.90;;;;;;5006486;28;20048;-87
2023/04/04 04:50:20;;;;;;;2.00;1.05;;;0.90;99.90;;;;;;4987177;28;20030;-87
2023/04/04 04:52:48;;;;;;;3.88;1.38;;;0.80;99.90;;;;;;4990729;28;20132;-87
2023/04/04 04:55:17;;;;;;;2.83;1.10;;;0.90;99.90;;;;;;5006156;28;20364;-88
2023/04/04 04:57:45;;;;;;;2.47;1.30;;;0.80;99.90;;;;;;4986247;28;20037;-88
2023/04/04 05:00:11;;;;;;;2.50;1.10;;;0.80;99.90;;;;;;4988490;28;20034;-87
2023/04/04 05:02:38;;;;;;;3.35;1.45;;;0.80;99.90;;;;;;5006404;28;20060;-89
2023/04/04 05:05:05;;;;;;;3.15;1.20;;;0.80;99.90;;;;;;4985154;28;20037;-87
2023/04/04 05:07:32;;;;;;;2.20;1.30;;;0.70;99.90;;;;;;4989841;28;20462;-90
2023/04/04 05:09:59;;;;;;;2.85;1.63;;;0.70;99.90;;;;;;4982620;28;20026;-89
2023/04/04 05:12:27;;;;;;;2.65;1.38;;;0.60;99.90;;;;;;4978608;28;20044;-88
2023/04/04 05:14:58;;;;;;;3.38;1.65;;;0.60;99.90;;;;;;4962615;28;20030;-90
2023/04/04 05:17:24;;;;;;;3.65;1.63;;;0.60;99.90;;;;;;4986137;28;20064;-88
2023/04/04 05:19:51;;;;;;;3.20;1.30;;;0.60;99.90;;;;;;5000983;28;20038;-88
2023/04/04 05:22:18;;;;;;;2.92;1.33;;;0.60;99.90;;;;;;5002328;28;20068;-90
2023/04/04 05:24:46;;;;;;;2.33;1.02;;;0.60;99.90;;;;;;5003706;28;20423;-89
2023/04/04 05:27:13;;;;;;;2.38;1.20;;;0.60;99.90;;;;;;4983560;28;20037;-89
2023/04/04 05:29:50;;;;;;;3.05;1.80;;;0.60;99.90;;;;;;4987578;28;20026;-88
2023/04/04 05:32:17;;;;;;;3.75;2.33;;;0.60;99.90;;;;;;5007086;28;20030;-89
2023/04/04 05:34:46;;;;;;;2.70;1.17;;;0.60;99.90;;;;;;5006378;28;20048;-90
2023/04/04 05:37:16;;;;;;;2.50;1.27;;;0.70;99.90;;;;;;4987215;28;20072;-90
2023/04/04 05:39:44;;;;;;;2.45;1.40;;;0.60;99.90;;;;;;4983417;28;20109;-89
2023/04/04 05:42:15;;;;;;;2.10;1.27;;;0.70;99.90;;;;;;5004463;28;20473;-88
2023/04/04 05:44:45;;;;;;;3.55;1.65;;;0.70;99.90;;;;;;4981391;28;20542;-89
2023/04/04 05:47:12;;;;;;;3.03;1.55;;;0.70;99.90;;;;;;4983436;28;20407;-90
2023/04/04 05:49:38;;;;;;;4.70;1.40;;;0.70;99.90;;;;;;5001508;28;20037;-89
2023/04/04 05:52:07;;;;;;;3.47;1.55;;;0.70;99.90;;;;;;4964635;28;20041;-88
2023/04/04 05:54:33;;;;;;;4.55;1.33;;;0.70;99.90;;;;;;4980899;28;20120;-89
2023/04/04 05:57:21;;;;;;;4.05;1.40;;;0.70;99.90;;;;;;4981044;28;20048;-88
2023/04/04 05:59:47;;;;;;;3.55;1.40;;;0.80;99.90;;;;;;4983526;28;20032;-89
2023/04/04 06:02:16;;;;;;;3.42;1.40;;;0.80;99.90;;;;;;5004099;28;20413;-89
2023/04/04 06:04:44;;;;;;;2.60;1.23;;;0.80;99.90;;;;;;4951472;28;20107;-90
2023/04/04 06:07:22;;;;;;;3.33;1.40;;;0.80;99.90;;;;;;4982368;28;20065;-90
2023/04/04 06:09:47;;;;;;;4.55;1.50;;;0.90;99.90;;;;;;4982664;28;20057;-90
2023/04/04 06:12:15;;;;;;;2.30;1.27;;;0.90;99.90;;;;;;4986678;28;20073;-89
2023/04/04 06:14:43;;;;;;;3.25;1.35;;;1.00;99.90;;;;;;4986178;28;20029;-90
2023/04/04 06:17:12;;;;;;;4.13;1.67;;;1.10;99.90;;;;;;4996316;28;20054;-90
2023/04/04 06:19:39;;;;;;;2.97;1.55;;;1.10;99.90;;;;;;5001667;28;20649;-89
2023/04/04 06:22:09;;;;;;;3.85;1.40;;;1.20;99.90;;;;;;4994659;28;20164;-89
2023/04/04 06:24:50;;;;;;;2.90;1.40;;;1.20;99.90;;;;;;5005205;28;20017;-91
2023/04/04 06:27:16;;;;;;;3.90;1.73;;;1.30;99.90;;;;;;4989686;28;20953;-88
2023/04/04 06:29:46;;;;;;;2.75;1.20;;;1.40;99.90;;;;;;4991513;28;20117;-89
2023/04/04 06:32:19;;;;;;;3.58;1.45;;;1.50;99.90;;;;;;4991467;28;20018;-90
2023/04/04 06:34:46;;;;;;;3.93;1.23;;;1.60;99.90;;;;;;4991181;28;20026;-89
2023/04/04 06:37:23;;;;;;;2.88;1.45;;;1.70;99.90;;;;;;4974475;28;20096;-88
2023/04/04 06:40:12;;;;;;;3.47;1.60;;;1.70;99.90;;;;;;5007048;28;20125;-88
2023/04/04 06:42:48;;;;;;;2.75;1.50;;;1.90;99.90;;;;;;5004314;28;20056;-89
2023/04/04 06:45:18;;;;;;;2.42;1.25;;;2.00;99.90;;;;;;5007212;28;20044;-89
2023/04/04 06:47:54;;;;;;;3.08;1.40;;;2.10;99.90;;;;;;5007319;28;20029;-90
2023/04/04 06:50:22;;;;;;;4.70;1.40;;;2.10;99.90;;;;;;4989427;28;20030;-89
2023/04/04 06:52:57;;;;;;;2.30;1.20;;;2.30;99.90;;;;;;4986092;28;20533;-89
2023/04/04 06:55:25;;;;;;;2.30;0.95;;;2.40;99.90;;;;;;5007205;28;20037;-90
2023/04/04 06:57:54;;;;;;;3.08;1.50;;;2.40;99.90;;;;;;4988872;28;20028;-89
2023/04/04 07:00:21;;;;;;;3.42;1.40;;;2.50;99.90;;;;;;4986924;28;20029;-89
2023/04/04 07:02:50;;;;;;;4.43;1.75;;;2.60;99.90;;;;;;4991137;28;20093;-88
2023/04/04 07:05:20;;;;;;;5.50;1.67;;;2.70;99.90;;;;;;4989271;28;20017;-90
2023/04/04 07:07:50;;;;;;;2.45;1.20;;;2.80;99.90;;;;;;4982807;28;20533;-89
2023/04/04 07:10:17;;;;;;;3.75;1.70;;;2.90;99.90;;;;;;4987098;28;20113;-89
2023/04/04 07:12:45;;;;;;;2.30;1.17;;;3.00;99.90;;;;;;4987870;28;20121;-89
2023/04/04 07:15:16;;;;;;;3.35;1.40;;;3.10;99.90;;;;;;4987401;28;20026;-88
2023/04/04 07:17:42;;;;;;;3.53;1.60;;;3.20;99.90;;;;;;4972610;28;20083;-89
2023/04/04 07:20:08;;;;;;;3.97;1.48;;;3.20;99.90;;;;;;4971513;28;20038;-89
2023/04/04 07:22:40;;;;;;;2.95;1.50;;;3.30;99.90;;;;;;4987413;28;20065;-88
2023/04/04 07:25:29;;;;;;;3.30;1.38;;;3.40;99.90;;;;;;4986545;28;20030;-90
2023/04/04 07:27:55;;;;;;;3.10;1.50;;;3.40;99.90;;;;;;4985572;28;20030;-90
2023/04/04 07:30:25;;;;;;;3.08;1.38;;;3.50;99.90;;;;;;4984540;28;20045;-88
2023/04/04 07:33:03;;;;;;;3.88;1.60;;;3.50;99.90;;;;;;4988028;28;20488;-89
2023/04/04 07:35:41;;;;;;;2.92;1.45;;;3.60;99.90;;;;;;4971096;28;20092;-88
2023/04/04 07:38:08;;;;;;;4.63;1.30;;;3.70;99.90;;;;;;4985060;28;20031;-89
2023/04/04 07:40:34;;;;;;;3.45;1.80;;;3.70;99.90;;;;;;4969989;28;20199;-89
2023/04/04 07:43:04;;;;;;;3.05;1.63;;;3.70;99.90;;;;;;4987571;28;20085;-89
2023/04/04 07:45:31;;;;;;;3.20;1.60;;;3.80;99.90;;;;;;5000473;28;20033;-89
2023/04/04 07:47:58;;;;;;;4.65;1.70;;;3.90;99.90;;;;;;4988150;28;20034;-89
2023/04/04 07:50:25;;;;;;;2.65;1.52;;;3.90;99.90;;;;;;4988270;28;20029;-89
2023/04/04 07:52:53;;;;;;;3.22;1.63;;;4.00;99.90;;;;;;5001913;28;20038;-89
2023/04/04 07:55:19;;;;;;;3.92;1.55;;;4.00;99.90;;;;;;4984461;28;20034;-88
2023/04/04 07:57:46;;;;;;;4.45;1.65;;;4.10;99.90;;;;;;4986125;28;20040;-88
2023/04/04 08:00:12;;;;;;;4.13;1.55;;;4.20;99.90;;;;;;4984365;28;20048;-88
2023/04/04 08:02:39;;;;;;;4.60;1.90;;;4.20;99.90;;;;;;4986289;28;20261;-89
2023/04/04 08:05:07;;;;;;;3.85;1.80;;;4.30;99.90;;;;;;5002523;28;20030;-89
2023/04/04 08:07:33;;;;;;;3.90;1.50;;;4.40;99.90;;;;;;4968351;28;20038;-89
2023/04/04 08:10:01;;;;;;;3.55;1.52;;;4.40;99.90;;;;;;4987731;28;20038;-88
2023/04/04 08:12:37;;;;;;;3.97;1.60;;;4.50;99.90;;;;;;4987246;28;20026;-89
2023/04/04 08:15:06;;;;;;;4.55;2.22;;;4.60;99.90;;;;;;4984723;28;20026;-89
2023/04/04 08:17:36;;;;;;;3.30;1.73;;;4.70;99.90;;;;;;4970720;28;20097;-89
2023/04/04 08:20:03;;;;;;;4.25;1.70;;;4.80;99.90;;;;;;4986608;28;20034;-88
2023/04/04 08:22:32;;;;;;;4.43;1.90;;;4.80;99.90;;;;;;4988574;28;20038;-89
2023/04/04 08:24:59;;;;;;;3.78;1.70;;;4.90;99.90;;;;;;4987178;28;20096;-90
2023/04/04 08:27:46;;;;;;;3.55;1.35;;;4.90;99.90;;;;;;4984986;28;20030;-89
2023/04/04 08:30:17;;;;;;;4.97;1.95;;;5.00;99.90;;;;;;5000675;28;20120;-90
2023/04/04 08:32:47;;;;;;;4.65;1.50;;;5.00;99.90;;;;;;4989378;28;20130;-88
2023/04/04 08:35:13;;;;;;;2.97;1.30;;;5.00;99.90;;;;;;4985730;28;20038;-89
2023/04/04 08:37:49;;;;;;;3.35;1.83;;;5.10;99.90;;;;;;4986288;28;20443;-89
2023/04/04 08:40:16;;;;;;;3.75;1.85;;;5.10;99.90;;;;;;4988393;28;20070;-88
2023/04/04 08:42:45;;;;;;;3.03;1.60;;;5.10;99.90;;;;;;4986761;28;20827;-87
2023/04/04 08:45:22;;;;;;;3.95;1.67;;;5.20;99.90;;;;;;4990441;28;20080;-88
2023/04/04 08:47:50;;;;;;;2.67;1.58;;;5.30;99.90;;;;;;4991057;28;20113;-89
2023/04/04 08:50:18;;;;;;;2.90;1.40;;;5.30;99.90;;;;;;5005060;28;20022;-88
2023/04/04 08:53:00;;;;;;;4.05;1.50;;;5.40;99.90;;;;;;5002603;28;20031;-88
2023/04/04 08:55:33;;;;;;;2.95;1.42;;;5.50;99.90;;;;;;4989255;28;20034;-88
2023/04/04 08:57:58;;;;;;;2.38;1.48;;;5.60;99.90;;;;;;4993541;28;20356;-88
2023/04/04 09:00:25;;;;;;;3.55;1.45;;;5.70;99.90;;;;;;5003127;28;20509;-88
2023/04/04 09:03:23;;;;;;;3.22;1.60;;;5.80;99.90;;;;;;5003752;28;20074;-88
2023/04/04 09:05:49;;;;;;;2.88;1.45;;;5.90;99.90;;;;;;4986964;28;20310;-88
2023/04/04 09:08:19;;;;;;;3.92;1.48;;;5.90;99.90;;;;;;4997361;28;20513;-88
2023/04/04 09:10:48;;;;;;;4.57;1.73;;;6.00;99.90;;;;;;4991282;28;20087;-87
2023/04/04 09:13:15;;;;;;;5.10;1.83;;;6.10;99.90;;;;;;4992106;28;20080;-87
2023/04/04 09:15:57;;;;;;;2.47;1.40;;;6.10;99.90;;;;;;4974538;28;20026;-87
2023/04/04 09:18:24;;;;;;;3.00;1.33;;;6.20;99.90;;;;;;4976136;28;20492;-87
2023/04/04 09:20:51;;;;;;;3.28;1.75;;;6.40;99.90;;;;;;4991469;28;20088;-86
2023/04/04 09:23:22;;;;;;;3.92;1.30;;;6.50;99.90;;;;;;4970089;28;20033;-86
2023/04/04 09:25:49;;;;;;;3.75;1.27;;;6.60;99.90;;;;;;4989083;28;20148;-86
2023/04/04 09:28:18;;;;;;;3.30;1.42;;;6.70;99.90;;;;;;4990545;28;20490;-87
2023/04/04 09:30:50;;;;;;;3.65;1.75;;;6.80;99.90;;;;;;4990654;28;20537;-86
2023/04/04 09:33:20;;;;;;;2.30;1.05;;;7.00;99.90;;;;;;4990745;28;20052;-86
2023/04/04 09:35:53;;;;;;;4.78;1.63;;;7.10;99.90;;;;;;5006206;28;20030;-87
2023/04/04 09:38:28;;;;;;;3.85;1.70;;;7.20;99.90;;;;;;5009248;28;20358;-89
2023/04/04 09:40:55;;;;;;;6.80;1.90;;;7.30;99.90;;;;;;5010354;28;20029;-87
2023/04/04 09:43:23;;;;;;;5.57;1.65;;;7.50;99.90;;;;;;4989872;28;20108;-87
2023/04/04 09:45:50;;;;;;;5.60;1.85;;;7.90;99.90;;;;;;4989259;28;20037;-88
2023/04/04 09:48:34;;;;;;;3.65;1.30;;;9.30;99.90;;;;;;4987267;28;20041;-87
2023/04/04 09:51:11;;;;;;;3.05;1.33;;;11.10;99.90;;;;;;4983182;28;20025;-88
2023/04/04 09:53:41;;;;;;;3.85;1.50;;;12.60;99.90;;;;;;4989760;28;20120;-86
2023/04/04 09:56:10;;;;;;;2.88;1.30;;;13.80;99.90;;;;;;5006072;28;20042;-88
2023/04/04 09:58:39;;;;;;;3.00;1.05;;;14.60;99.90;;;;;;4986487;28;20149;-89
2023/04/04 10:01:09;;;;;;;3.63;1.25;;;15.20;99.90;;;;;;4979883;28;20414;-88
2023/04/04 10:03:38;;;;;;;3.83;1.85;;;15.60;99.90;;;;;;4964403;28;20384;-88
2023/04/04 10:06:11;;;;;;;3.90;1.23;;;15.80;99.90;;;;;;4978034;28;20363;-88
2023/04/04 10:08:44;;;;;;;;;;;16.00;99.40;;;;;;4999916;28;20055;-87
2023/04/04 10:11:42;;;;;;;3.97;1.90;;;16.20;97.80;;;;;;4963021;28;19913;-89
2023/04/04 10:14:12;;;;;;;3.03;1.52;;;16.40;97.10;;;;;;4996287;28;20315;-87
2023/04/04 10:16:45;;;;;;;2.80;1.20;;;16.80;96.90;;;;;;4975774;28;20057;-88
2023/04/04 10:19:18;;;;;;;3.83;1.55;;;17.40;96.20;;;;;;4985920;28;20038;-88
2023/04/04 10:21:45;;;;;;;4.47;1.85;;;17.60;95.60;;;;;;4971763;28;20030;-89
2023/04/04 10:24:21;;;;;;;4.35;1.58;;;17.90;95.00;;;;;;5004041;28;20128;-87
2023/04/04 10:26:52;;;;;;;3.67;1.48;;;18.20;93.90;;;;;;4987996;28;20083;-87
2023/04/04 10:29:20;;;;;;;3.20;1.77;;;18.40;93.80;;;;;;4990041;28;20040;-87
2023/04/04 10:31:52;;;;;;;2.53;1.30;;;18.50;93.30;;;;;;4990073;28;20200;-89
2023/04/04 10:34:30;;;;;;;3.13;1.27;;;18.60;92.90;;;;;;4985070;28;20035;-89
2023/04/04 10:37:51;;;;;;;2.83;1.20;;;18.90;92.60;;;;;;5008975;28;20414;-88
2023/04/04 10:40:20;;;;;;;4.00;1.48;;;19.00;91.30;;;;;;4955583;28;20086;-90
2023/04/04 10:42:51;;;;;;;3.30;1.35;;;18.90;90.60;;;;;;4978458;28;20137;-89
2023/04/04 10:45:29;;;;;;;2.70;1.08;;;19.10;90.80;;;;;;5005895;28;21034;-88
2023/04/04 10:48:03;;;;;;;3.92;1.30;;;19.40;90.40;;;;;;4984491;28;20026;-89
2023/04/04 10:50:34;;;;;;;2.67;1.30;;;19.70;90.00;;;;;;4969398;28;20041;-89
2023/04/04 10:53:03;;;;;;;3.90;1.63;;;19.90;89.60;;;;;;4985338;28;20037;-92
2023/04/04 10:55:32;;;;;;;2.83;1.10;;;20.00;88.20;;;;;;4984689;28;20540;-91
2023/04/04 10:58:00;;;;;;;3.25;1.20;;;19.90;87.70;;;;;;5005395;28;20053;-89
2023/04/04 11:00:33;;;;;;;2.42;1.20;;;20.10;87.50;;;;;;4985085;28;20030;-89
2023/04/04 11:03:00;;;;;;;2.35;1.08;;;20.40;86.60;;;;;;4985444;28;20037;-90
2023/04/04 11:05:31;;;;;;;2.95;1.40;;;20.50;85.60;;;;;;4986431;28;20575;-88
2023/04/04 11:08:06;;;;;;;2.75;1.40;;;20.40;84.10;;;;;;5005405;28;20038;-89
2023/04/04 11:10:47;;;;;;;4.32;1.92;;;20.40;84.10;;;;;;5005309;28;20091;-88
2023/04/04 11:13:22;;;;;;;4.90;1.92;;;20.10;81.80;;;;;;4988788;28;20026;-88
2023/04/04 11:15:57;;;;;;;3.53;1.45;;;20.00;83.20;;;;;;4987457;28;20093;-89
2023/04/04 11:18:46;;;;;;;3.38;1.77;;;20.30;82.90;;;;;;5004323;28;20034;-89
2023/04/04 11:21:28;;;;;;;2.33;1.20;;;20.40;81.60;;;;;;4990296;28;20045;-89
2023/04/04 11:24:17;;;;;;;4.32;1.50;;;20.40;82.10;;;;;;5012042;28;20033;-89
2023/04/04 11:26:45;;;;;;;3.70;1.58;;;20.70;81.90;;;;;;4983848;28;20030;-89
2023/04/04 11:29:54;;;;;;;3.63;1.50;;;20.80;81.20;;;;;;4978342;28;22392;-91
2023/04/04 11:32:57;;;;;;;4.78;1.73;;;20.70;80.70;;;;;;4966868;28;20129;-88
2023/04/04 11:35:27;;;;;;;3.67;1.85;;;20.80;80.40;;;;;;4981559;28;20474;-91
2023/04/04 11:37:59;;;;;;;2.83;1.40;;;20.50;79.90;;;;;;4985443;28;20338;-90
2023/04/04 11:40:51;;;;;;;4.38;1.50;;;20.50;79.80;;;;;;4987632;28;20066;-88
2023/04/04 11:43:19;;;;;;;4.45;2.22;;;20.70;80.30;;;;;;5004371;28;20048;-89
2023/04/04 11:45:47;;;;;;;3.10;1.23;;;20.90;77.80;;;;;;4973744;28;20053;-88
2023/04/04 11:48:18;;;;;;;3.22;1.45;;;20.80;78.80;;;;;;4973448;28;20057;-88
2023/04/04 11:50:49;;;;;;;2.75;1.20;;;20.90;79.30;;;;;;4990455;28;20038;-88
2023/04/04 11:53:16;;;;;;;2.90;1.50;;;21.20;78.80;;;;;;4989191;28;20169;-88
2023/04/04 11:55:45;;;;;;;4.03;1.30;;;21.40;78.40;;;;;;4980161;28;20026;-89
2023/04/04 11:58:13;;;;;;;3.20;1.08;;;21.60;77.50;;;;;;4977629;28;20037;-89
2023/04/04 12:00:42;;;;;;;3.28;1.38;;;21.60;76.90;;;;;;5001950;28;20026;-91
2023/04/04 12:03:11;;;;;;;3.53;1.52;;;21.80;77.90;;;;;;4974406;28;20506;-88
2023/04/04 12:05:45;;;;;;;3.80;1.30;;;21.90;77.90;;;;;;5000590;28;20683;-89
2023/04/04 12:08:11;;;;;;;2.63;1.40;;;22.20;77.40;;;;;;4964369;28;20128;-88
2023/04/04 12:10:43;;;;;;;2.92;1.55;;;22.40;76.20;;;;;;4964034;28;20026;-89
2023/04/04 12:13:09;;;;;;;2.90;1.45;;;22.30;76.10;;;;;;4981233;28;20092;-89
2023/04/04 12:15:38;;;;;;;2.65;1.40;;;22.10;76.00;;;;;;4985172;28;20136;-89
2023/04/04 12:18:09;;;;;;;3.08;1.38;;;21.90;76.20;;;;;;4969530;28;20508;-89
2023/04/04 12:21:07;;;;;;;3.55;1.70;;;22.10;75.90;;;;;;5010295;28;20145;-89
2023/04/04 12:23:41;;;;;;;2.05;1.20;;;22.20;74.60;;;;;;4998767;28;20034;-89
2023/04/04 12:26:10;;;;;;;2.90;1.10;;;22.30;75.80;;;;;;4993663;28;20120;-89
2023/04/04 12:28:39;;;;;;;2.05;1.02;;;22.30;76.40;;;;;;4976458;28;20034;-88
2023/04/04 12:31:06;;;;;;;2.58;1.17;;;22.60;75.40;;;;;;5010394;28;20038;-87
2023/04/04 12:33:35;;;;;;;2.38;1.15;;;22.90;74.90;;;;;;4990455;28;20386;-90
2023/04/04 12:36:02;;;;;;;3.63;1.63;;;23.20;75.00;;;;;;4979237;28;20038;-88
2023/04/04 12:38:30;;;;;;;3.08;1.30;;;23.00;73.30;;;;;;4991466;28;20038;-87
2023/04/04 12:41:08;;;;;;;2.95;1.35;;;22.70;73.80;;;;;;4994364;28;20037;-86
2023/04/04 12:43:40;;;;;;;3.47;1.60;;;22.80;72.90;;;;;;5010036;28;20072;-87
2023/04/04 12:46:08;;;;;;;;;;;22.80;71.50;;;;;;5011903;28;20033;-88
2023/04/04 12:48:37;;;;;;;2.42;1.20;;;22.80;73.00;;;;;;4990498;28;19924;-89
2023/04/04 12:51:07;;;;;;;6.70;1.88;;;23.10;73.80;;;;;;4990649;28;20485;-88
2023/04/04 12:53:48;;;;;;;3.38;1.40;;;23.20;73.30;;;;;;5010469;28;20379;-86
2023/04/04 12:56:15;;;;;;;3.38;1.60;;;23.10;72.40;;;;;;5010982;28;20029;-87
2023/04/04 12:58:47;;;;;;;3.05;1.40;;;23.20;72.40;;;;;;4993706;28;20108;-88
2023/04/04 13:01:19;;;;;;;2.60;1.10;;;23.40;72.30;;;;;;4989430;28;20122;-87
2023/04/04 13:03:46;;;;;;;1.45;0.93;;;23.40;70.90;;;;;;5009300;28;20045;-88
2023/04/04 13:06:15;;;;;;;3.00;1.13;;;23.40;72.00;;;;;;4992684;28;20758;-88
2023/04/04 13:08:57;;;;;;;3.33;1.50;;;23.30;72.10;;;;;;4990276;28;20053;-89
2023/04/04 13:11:26;;;;;;;1.52;0.90;;;23.30;71.40;;;;;;4991866;28;20038;-88